HOURLY OBS INDEX

084

East Gippsland

COMBIENBAR AWS

Site: 084143
Alt: 640.0m
64km NE of ORBOST


  Time     Wind        Temp  DP   Baro     Rain since   Rain past  Vis(m), Cloud(base in m), Weather
  local        km/h                         9am  last   hr   10m    
Wed 22:00   NW  6/ 13   9.6  4.4  1009.1    0.0   0.0   0.0   0.0   ----- 
Wed 22:30  NNW  2/  7   9.5  4.1  1008.7    0.0   0.0   0.0   0.0   ----- 
Wed 23:00   SE  2/  6   9.0  4.0  1008.7    0.0   0.0   0.0   0.0   ----- 
Wed 23:30    C  0/  0   8.4  4.0  1008.3    0.0   0.0   0.0   0.0   ----- 
Thu 00:00    C  0/  2   8.2  3.9  1008.0    0.0   0.0   0.0   0.0   ----- 
Thu 00:30  WSW  4/  7   8.0  3.7  1007.4    0.0   0.0   0.0   0.0   ----- 
Thu 01:00    W  2/  6   7.9  3.8  1007.5    0.0   0.0   0.0   0.0   ----- 
Thu 01:30    W  4/  6   8.1  4.1  1007.2    0.0   0.0   0.0   0.0   ----- 
Thu 02:00   SW  4/  6   7.5  4.3  1007.0    0.0   0.0   0.0   0.0   ----- 
Thu 02:30    C  0/  0   7.2  4.2  1006.9    0.0   0.0   0.0   0.0   ----- 
Thu 03:00  SSW  4/  6   7.2  4.7  1006.5    0.0   0.0   0.0   0.0   ----- 

GABO ISLAND LIGHTHOUSE

Site: 084016
Alt: 15.0m
14km E of MALLACOOTA


  Time     Wind        Temp  DP   Baro     Rain since   Rain past  Vis(m), Cloud(base in m), Weather
  local        km/h                         9am  last   hr   10m    
Wed 22:00   NE 11/ 15  14.3  9.9  1008.4    0.0   0.0   0.0   0.0   ----- 
Wed 22:30    N 13/ 19  14.0  9.2  1008.6    0.0   0.0   0.0   0.0   ----- 
Wed 23:00  NNW 13/ 20  14.2  9.4  1008.9    0.0   0.0   0.0   0.0   ----- 
Wed 23:30    N 19/ 22  14.1  7.9  1008.5    0.0   0.0   0.0   0.0   ----- 
Thu 00:00    N 22/ 28  13.7  8.1  1008.1    0.0   0.0   0.0   0.0   ----- 
Thu 00:30    N 24/ 32  12.9  8.4  1007.5    0.0   0.0   0.0   0.0   ----- 
Thu 01:00    N 22/ 32  12.6  8.9  1007.3    0.0   0.0   0.0   0.0   ----- 
Thu 01:30    N 19/ 24  12.2  8.5  1007.0    0.0   0.0   0.0   0.0   ----- 
Thu 02:00    N 13/ 17  11.9  8.4  1006.9    0.0   0.0   0.0   0.0   ----- 
Thu 02:30  NNE 15/ 20  12.1  8.0  1006.5    0.0   0.0   0.0   0.0   ----- 
Thu 03:00    W  7/ 11  11.7  8.0  1006.1    0.0   0.0   0.0   0.0   ----- 

GELANTIPY

Site: 084142
Alt: 755.0m
56km NNW of ORBOST


  Time     Wind        Temp  DP   Baro     Rain since   Rain past  Vis(m), Cloud(base in m), Weather
  local        km/h                         9am  last   hr   10m    
Wed 22:00  WNW 24/ 32   5.2  4.2  1009.4    1.4   1.4   1.4   0.2   ----- 
Wed 22:30    W 20/ 26   4.7  4.0  1009.2    2.6   1.2   2.6   0.2   ----- 
Wed 23:00   NW 17/ 22   4.6  3.7  1008.3    3.0   0.4   1.6   0.0   ----- 
Wed 23:30  NNE  7/ 13   4.7  3.5  1007.5    3.0   0.0   0.4   0.0   ----- 
Thu 00:00    N 13/ 19   4.1  2.8  1007.1    3.0   0.0   0.0   0.0   ----- 
Thu 00:30    N  9/ 13   4.1  2.8  1006.8    3.0   0.0   0.0   0.0   ----- 
Thu 01:00  NNE  6/  7   3.5  2.5  1007.1    3.0   0.0   0.0   0.0   ----- 
Thu 01:30  NNE  6/  7   2.3  1.3  1006.7    3.0   0.0   0.0   0.0   ----- 
Thu 02:00    C  0/  6   2.0  1.0  1006.5    3.0   0.0   0.0   0.0   ----- 
Thu 02:30  WSW  9/ 17   4.1  2.5  1006.4    3.0   0.0   0.0   0.0   ----- 
Thu 03:00  SSW  9/ 19   4.7  2.2  1006.5    3.0   0.0   0.0   0.0   ----- 

MALLACOOTA

Site: 084084
Alt: 22.0m
5km SSW of MALLACOOTA


  Time     Wind        Temp  DP   Baro     Rain since   Rain past  Vis(m), Cloud(base in m), Weather
  local        km/h                         9am  last   hr   10m    
Wed 22:00  WNW  2/  7  11.2  9.3  1008.5    0.0   0.0   0.0   0.0   ----- 
Wed 22:30   NW  9/ 13  11.7  9.1  1008.7    0.0   0.0   0.0   0.0   ----- 
Wed 23:00   NW  7/  9  11.5  8.9  1008.5    0.0   0.0   0.0   0.0   ----- 
Wed 23:30    N  9/ 13  11.6  9.3  1008.4    0.0   0.0   0.0   0.0   ----- 
Thu 00:00    N 11/ 17  12.5  8.6  1008.0    0.0   0.0   0.0   0.0   ----- 
Thu 00:30    N 13/ 19  12.5  7.8  1007.6    0.0   0.0   0.0   0.0   ----- 
Thu 01:00    N 17/ 26  12.3  7.2  1007.2    0.0   0.0   0.0   0.0   ----- 
Thu 01:30  NNW  7/ 11  11.7  7.2  1006.9    0.0   0.0   0.0   0.0   ----- 
Thu 02:00  NNW  9/ 13  11.5  7.2  1006.8    0.0   0.0   0.0   0.0   ----- 
Thu 02:30  WNW  7/ 13  11.3  7.2  1006.4    0.0   0.0   0.0   0.0   ----- 
Thu 03:00   SW  9/ 17  11.2  7.5  1006.3    0.0   0.0   0.0   0.0   ----- 

MOUNT NOWA NOWA

Site: 084144
Alt: 350.0m
32km W of ORBOST


  Time     Wind        Temp  DP   Baro     Rain since   Rain past  Vis(m), Cloud(base in m), Weather
  local        km/h                         9am  last   hr   10m    
Wed 22:00    N 24/ 35   8.7  5.3  ------    1.2   0.0   0.0   0.0   ----- 
Wed 22:30  NNW 22/ 28   8.4  5.3  ------    1.2   0.0   0.0   0.0   ----- 
Wed 23:00  NNW 26/ 33   8.7  5.1  ------    1.2   0.0   0.0   0.0   ----- 
Wed 23:30   NW 19/ 24   8.0  5.1  ------    1.2   0.0   0.0   0.0   ----- 
Thu 00:00   NW 22/ 28   8.0  4.6  ------    1.2   0.0   0.0   0.0   ----- 
Thu 00:30   NW 22/ 32   8.1  4.1  ------    1.2   0.0   0.0   0.0   ----- 
Thu 01:00   NW 17/ 22   7.6  4.0  ------    1.2   0.0   0.0   0.0   ----- 
Thu 01:30   NW 17/ 22   7.8  3.8  ------    1.2   0.0   0.0   0.0   ----- 
Thu 02:00  WNW  9/ 19   8.0  3.7  ------    1.2   0.0   0.0   0.0   ----- 
Thu 02:30    W 13/ 17   7.5  3.7  ------    1.2   0.0   0.0   0.0   ----- 
Thu 03:00    W 13/ 15   7.5  3.7  ------    1.2   0.0   0.0   0.0   ----- 

ORBOST

Site: 084145
Alt: 62.7m
1km NNE of ORBOST


  Time     Wind        Temp  DP   Baro     Rain since   Rain past  Vis(m), Cloud(base in m), Weather
  local        km/h                         9am  last   hr   10m    
Wed 22:00    N  9/ 13  10.6  8.0  1009.0    0.0   0.0   0.0   0.0   ----- 
Wed 22:30  NNE  9/ 13  11.6  7.7  1008.5    0.0   0.0   0.0   0.0   ----- 
Wed 23:00  SSW  4/  7  10.3  7.2  1008.3    0.0   0.0   0.0   0.0   ----- 
Wed 23:30    C  0/  4   9.8  6.7  1008.0    0.0   0.0   0.0   0.0   ----- 
Thu 00:00  ENE  6/  7   8.3  6.8  1007.9    0.0   0.0   0.0   0.0   ----- 
Thu 00:30    N  4/  6   7.8  7.1  1007.7    0.0   0.0   0.0   0.0   ----- 
Thu 01:00  WNW  2/  2   7.9  7.6  1007.9    0.0   0.0   0.0   0.0   ----- 
Thu 01:30    N  4/  4   8.5  8.4  1007.9    0.0   0.0   0.0   0.0   ----- 
Thu 02:00  NNW  6/  7   8.0  7.7  1007.7    0.0   0.0   0.0   0.0   ----- 
Thu 02:30    N  6/  7   7.3  7.2  1007.7    0.0   0.0   0.0   0.0   ----- 
Thu 03:00    N  9/ 11   8.7  6.8  1007.6    0.0   0.0   0.0   0.0   -----